Terminal Aerodrome Forecast
Issued by NWS

Home | Current Version | Previous Version | Text Only | Print | Product List | Glossary On
Versions: 1 2 3 4 5 6 7 8 9 10 11 12 13 14 15 16 17 18 19 20 21 22 23 24 25 26 27 28 29 30
000
FTUS46 KEKA 220700 AAA
TAFCEC
TAF AMD
KCEC 220704Z 2207/2306 24005KT P6SM SCT012
     FM220900 20004KT P6SM SCT006 BKN012
     FM221000 VRB03KT 5SM BR OVC006
     FM221200 VRB03KT 2SM BR OVC004
     FM221800 30007KT 6SM BR BKN006
     FM222100 32012KT P6SM SCT006
     FM230000 33014G22KT P6SM SKC=

USA.gov is the U.S. government's official web portal to all federal, state and local government web resources and services.